Time;durP1;ratioP1;P1;durP2;ratioP2;P2;SDS_P1;SDS_P2;PMS_P1;PMS_P2;Temp;Humidity;BMP_temperature;BMP_pressure;BME280_temperature;BME280_humidity;BME280_pressure;Samples;Min_cycle;Max_cycle;Signal;HPM_P1;HPM_P2
2021/04/29 00:02:05;;;;;;;1999.90;999.90;;;;;;;10.38;54.71;97315.44;5045659;28;20053;-65
2021/04/29 00:04:33;;;;;;;1999.90;999.90;;;;;;;10.29;53.97;97312.00;5046785;28;20079;-65
2021/04/29 00:06:59;;;;;;;1999.90;999.90;;;;;;;10.30;53.46;97305.28;5044610;28;20045;-65
2021/04/29 00:09:25;;;;;;;1999.90;999.90;;;;;;;10.18;53.92;97301.44;5042030;28;20048;-65
2021/04/29 00:11:51;;;;;;;1999.90;999.90;;;;;;;10.20;54.10;97299.09;5047806;28;20041;-65
2021/04/29 00:14:17;;;;;;;1999.90;999.90;;;;;;;10.28;54.87;97299.31;5043459;28;20456;-65
2021/04/29 00:16:44;;;;;;;1999.90;999.90;;;;;;;10.27;54.64;97300.47;5043388;28;20095;-65
2021/04/29 00:19:10;;;;;;;1999.90;999.90;;;;;;;10.22;55.32;97309.81;5046213;28;20048;-65
2021/04/29 00:21:37;;;;;;;1999.90;999.90;;;;;;;10.11;56.08;97303.16;5046757;28;20450;-65
2021/04/29 00:24:04;;;;;;;1999.90;999.90;;;;;;;10.18;56.42;97303.38;5038222;28;20037;-65
2021/04/29 00:26:30;;;;;;;1999.90;999.90;;;;;;;10.19;56.69;97299.47;5043342;28;20219;-65
2021/04/29 00:28:56;;;;;;;1999.90;999.90;;;;;;;10.07;56.70;97310.53;5044589;28;20581;-65
2021/04/29 00:31:22;;;;;;;1999.90;999.90;;;;;;;9.64;56.60;97307.22;5036678;28;20111;-65
2021/04/29 00:33:49;;;;;;;1999.90;999.90;;;;;;;9.43;56.98;97307.31;5041970;28;20047;-65
2021/04/29 00:36:15;;;;;;;1999.90;999.90;;;;;;;9.57;56.42;97298.72;5047477;28;20114;-65
2021/04/29 00:38:42;;;;;;;1999.90;999.90;;;;;;;9.73;55.93;97301.59;5041499;28;20049;-65
2021/04/29 00:41:08;;;;;;;1999.90;999.90;;;;;;;9.87;56.56;97308.38;5041973;28;20550;-65
2021/04/29 00:43:34;;;;;;;1999.90;999.90;;;;;;;9.63;57.27;97309.19;5034993;28;20049;-65
2021/04/29 00:46:00;;;;;;;1999.90;999.90;;;;;;;9.57;56.42;97309.75;5044093;28;20484;-65
2021/04/29 00:48:26;;;;;;;1999.90;999.90;;;;;;;9.78;56.89;97315.16;5034824;28;20569;-65
2021/04/29 00:50:52;;;;;;;1999.90;999.90;;;;;;;9.87;55.67;97311.13;5038015;28;20053;-65
2021/04/29 00:53:19;;;;;;;1999.90;999.90;;;;;;;9.87;56.52;97313.88;5029560;28;20057;-65
2021/04/29 00:55:45;;;;;;;1999.90;999.90;;;;;;;9.79;57.47;97312.03;5041887;28;20058;-65
2021/04/29 00:58:11;;;;;;;1999.90;999.90;;;;;;;9.81;57.39;97309.75;5025603;28;20563;-65
2021/04/29 01:00:38;;;;;;;1999.90;999.90;;;;;;;9.86;58.27;97312.28;5036537;28;20516;-65
2021/04/29 01:03:13;;;;;;;1999.90;999.90;;;;;;;9.95;58.19;97305.84;5043141;28;20048;-65
2021/04/29 01:05:49;;;;;;;1999.90;999.90;;;;;;;9.94;57.42;97302.25;5044606;28;20045;-65
2021/04/29 01:08:28;;;;;;;1999.90;999.90;;;;;;;9.93;56.93;97305.34;5045766;28;20053;-65
2021/04/29 01:11:11;;;;;;;1999.90;999.90;;;;;;;9.86;57.76;97301.22;5051704;28;20070;-65
2021/04/29 01:13:40;;;;;;;1999.90;999.90;;;;;;;9.97;57.34;97295.22;5044524;28;21130;-65
2021/04/29 01:16:09;;;;;;;1999.90;999.90;;;;;;;9.91;57.06;97300.19;5040715;28;20463;-65
2021/04/29 01:18:36;;;;;;;1999.90;999.90;;;;;;;9.94;58.28;97296.72;5039986;28;20053;-65
2021/04/29 01:21:05;;;;;;;1999.90;999.90;;;;;;;9.96;57.88;97304.66;5042441;28;20118;-65
2021/04/29 01:23:42;;;;;;;1999.90;999.90;;;;;;;9.83;57.60;97301.91;5041188;28;20044;-65
2021/04/29 01:26:33;;;;;;;1999.90;999.90;;;;;;;9.55;57.48;97306.53;5045682;28;20052;-65
2021/04/29 01:29:08;;;;;;;1999.90;999.90;;;;;;;9.67;57.51;97304.56;5043671;28;20099;-65
2021/04/29 01:31:39;;;;;;;1999.90;999.90;;;;;;;9.70;58.18;97308.59;5041156;28;20056;-65
2021/04/29 01:34:08;;;;;;;1999.90;999.90;;;;;;;9.72;58.86;97306.31;5045480;28;20161;-65
2021/04/29 01:36:36;;;;;;;1999.90;999.90;;;;;;;9.54;58.84;97308.47;5042035;28;20283;-65
2021/04/29 01:39:09;;;;;;;1999.90;999.90;;;;;;;9.60;58.32;97312.63;5041442;28;20041;-65
2021/04/29 01:41:40;;;;;;;1999.90;999.90;;;;;;;9.18;59.49;97306.50;5044444;28;20048;-65
2021/04/29 01:44:10;;;;;;;1999.90;999.90;;;;;;;9.23;59.50;97309.00;5037136;28;20071;-65
2021/04/29 01:46:38;;;;;;;1999.90;999.90;;;;;;;9.40;59.25;97303.28;5044690;28;20495;-65
2021/04/29 01:49:07;;;;;;;1999.90;999.90;;;;;;;9.45;58.83;97308.59;5048806;28;20040;-65
2021/04/29 01:51:34;;;;;;;1999.90;999.90;;;;;;;9.41;59.23;97312.38;5038996;28;20053;-65
2021/04/29 01:54:01;;;;;;;1999.90;999.90;;;;;;;9.27;59.14;97309.94;5047453;28;20045;-65
2021/04/29 01:56:28;;;;;;;1999.90;999.90;;;;;;;9.37;58.90;97308.72;5048982;28;20044;-66
2021/04/29 01:58:54;;;;;;;1999.90;999.90;;;;;;;9.41;59.14;97307.69;5050221;28;20063;-66
2021/04/29 02:01:21;;;;;;;1999.90;999.90;;;;;;;9.39;59.01;97304.44;5047591;28;20557;-66
2021/04/29 02:03:48;;;;;;;1999.90;999.90;;;;;;;9.42;59.51;97298.22;5040711;28;20045;-66
2021/04/29 02:06:14;;;;;;;1999.90;999.90;;;;;;;9.45;58.90;97286.53;5042492;28;20180;-64
2021/04/29 02:08:40;;;;;;;1999.90;999.90;;;;;;;9.42;59.09;97295.47;5048066;28;20055;-64
2021/04/29 02:11:08;;;;;;;1999.90;999.90;;;;;;;9.35;59.12;97303.53;5047331;28;20049;-65
2021/04/29 02:13:35;;;;;;;1999.90;999.90;;;;;;;9.34;59.24;97302.72;5046300;28;20106;-65
2021/04/29 02:16:07;;;;;;;1999.90;999.90;;;;;;;9.26;59.67;97300.88;5048027;28;20056;-65
2021/04/29 02:18:33;;;;;;;1999.90;999.90;;;;;;;9.23;59.97;97297.97;5046527;28;20053;-65
2021/04/29 02:21:00;;;;;;;1999.90;999.90;;;;;;;9.36;60.18;97304.31;5054606;28;20073;-65
2021/04/29 02:23:28;;;;;;;1999.90;999.90;;;;;;;9.29;60.44;97294.66;5037522;28;20492;-65
2021/04/29 02:25:57;;;;;;;1999.90;999.90;;;;;;;9.31;59.51;97291.56;5048782;28;20056;-65
2021/04/29 02:28:24;;;;;;;1999.90;999.90;;;;;;;9.28;60.38;97292.25;5046538;28;20104;-65
2021/04/29 02:30:50;;;;;;;1999.90;999.90;;;;;;;9.31;59.24;97297.88;5044951;28;20045;-65
2021/04/29 02:33:17;;;;;;;1999.90;999.90;;;;;;;9.24;59.45;97292.13;5045141;28;20072;-65
2021/04/29 02:35:45;;;;;;;1999.90;999.90;;;;;;;9.25;59.62;97284.66;5049538;28;20471;-65
2021/04/29 02:38:18;;;;;;;1999.90;999.90;;;;;;;9.24;60.52;97291.31;5045475;28;20126;-65
2021/04/29 02:40:45;;;;;;;1999.90;999.90;;;;;;;9.36;60.36;97291.31;5045363;28;20044;-65
2021/04/29 02:43:14;;;;;;;1999.90;999.90;;;;;;;9.35;60.67;97286.97;5043621;28;20041;-65
2021/04/29 02:45:42;;;;;;;1999.90;999.90;;;;;;;9.32;59.37;97293.19;5046668;28;20045;-65
2021/04/29 02:48:10;;;;;;;1999.90;999.90;;;;;;;9.24;58.34;97291.31;5047427;28;20041;-65
2021/04/29 02:50:43;;;;;;;1999.90;999.90;;;;;;;9.10;58.46;97289.69;5048856;28;20483;-65
2021/04/29 02:53:13;;;;;;;1999.90;999.90;;;;;;;8.88;59.27;97295.63;5040579;28;20436;-65
2021/04/29 02:55:42;;;;;;;1999.90;999.90;;;;;;;8.91;59.55;97292.19;5046045;28;20049;-65
2021/04/29 02:58:09;;;;;;;1999.90;999.90;;;;;;;8.97;59.97;97299.09;5047839;28;20106;-65
2021/04/29 03:00:40;;;;;;;1999.90;999.90;;;;;;;8.90;60.86;97293.31;5047580;28;20056;-65
2021/04/29 03:03:09;;;;;;;1999.90;999.90;;;;;;;8.97;60.96;97291.59;5046951;28;20056;-65
2021/04/29 03:05:37;;;;;;;1999.90;999.90;;;;;;;8.87;61.51;97289.28;5045013;28;20049;-65
2021/04/29 03:08:04;;;;;;;1999.90;999.90;;;;;;;8.92;60.34;97288.28;5040969;28;20515;-65
2021/04/29 03:10:30;;;;;;;1999.90;999.90;;;;;;;8.54;60.21;97287.31;5037701;28;20459;-65
2021/04/29 03:12:59;;;;;;;1999.90;999.90;;;;;;;8.48;61.27;97288.69;5048358;28;20041;-65
2021/04/29 03:15:26;;;;;;;1999.90;999.90;;;;;;;8.87;60.61;97280.22;5045496;28;20057;-65
2021/04/29 03:17:52;;;;;;;1999.90;999.90;;;;;;;8.94;60.89;97283.22;5047141;28;20103;-65
2021/04/29 03:20:35;;;;;;;1999.90;999.90;;;;;;;8.91;61.60;97278.38;5047871;28;20092;-65
2021/04/29 03:23:01;;;;;;;1999.90;999.90;;;;;;;9.00;60.78;97287.38;5041656;28;20118;-65
2021/04/29 03:25:28;;;;;;;1999.90;999.90;;;;;;;9.01;60.21;97282.66;5047574;28;20122;-65
2021/04/29 03:27:54;;;;;;;1999.90;999.90;;;;;;;8.99;60.24;97291.25;5043776;28;20045;-65
2021/04/29 03:30:21;;;;;;;1999.90;999.90;;;;;;;8.96;60.09;97280.91;5047437;28;20052;-65
2021/04/29 03:32:47;;;;;;;1999.90;999.90;;;;;;;9.03;59.68;97286.69;5048300;28;20053;-65
2021/04/29 03:35:13;;;;;;;1999.90;999.90;;;;;;;9.08;59.37;97286.47;5045372;28;20064;-65
2021/04/29 03:37:39;;;;;;;1999.90;999.90;;;;;;;9.02;59.18;97287.03;5043381;28;20068;-65
2021/04/29 03:40:06;;;;;;;1999.90;999.90;;;;;;;9.01;59.08;97288.16;5047004;28;20558;-64
2021/04/29 03:42:32;;;;;;;1999.90;999.90;;;;;;;9.06;59.56;97296.22;5041433;28;20091;-65
2021/04/29 03:44:59;;;;;;;1999.90;999.90;;;;;;;8.73;60.46;97289.59;5043529;28;20053;-65
2021/04/29 03:47:25;;;;;;;1999.90;999.90;;;;;;;8.75;60.85;97281.81;5054819;28;20045;-65
2021/04/29 03:49:51;;;;;;;1999.90;999.90;;;;;;;8.81;60.01;97287.88;5042641;28;20046;-65
2021/04/29 03:52:17;;;;;;;1999.90;999.90;;;;;;;8.75;59.83;97283.75;5034836;28;20045;-65
2021/04/29 03:54:43;;;;;;;1999.90;999.90;;;;;;;9.04;58.91;97291.06;5036502;28;20048;-65
2021/04/29 03:57:09;;;;;;;1999.90;999.90;;;;;;;9.00;58.73;97281.84;5042483;28;20459;-65
2021/04/29 03:59:36;;;;;;;1999.90;999.90;;;;;;;9.33;58.45;97272.72;5035107;28;20049;-65
2021/04/29 04:02:02;;;;;;;1999.90;999.90;;;;;;;9.57;59.37;97276.63;5039914;28;20044;-65
2021/04/29 04:04:29;;;;;;;1999.90;999.90;;;;;;;9.74;59.58;97270.88;5036654;28;20049;-65
2021/04/29 04:06:55;;;;;;;1999.90;999.90;;;;;;;9.72;58.37;97273.19;5036827;28;20057;-65
2021/04/29 04:09:21;;;;;;;1999.90;999.90;;;;;;;9.76;57.77;97274.09;5042270;28;20086;-65
2021/04/29 04:11:48;;;;;;;1999.90;999.90;;;;;;;9.95;57.76;97265.22;5046568;28;20470;-65
2021/04/29 04:14:14;;;;;;;1999.90;999.90;;;;;;;10.15;59.06;97257.94;5025824;28;20048;-65
2021/04/29 04:16:40;;;;;;;1999.90;999.90;;;;;;;10.16;60.08;97261.47;5042210;28;20103;-65
2021/04/29 04:19:07;;;;;;;1999.90;999.90;;;;;;;10.35;58.87;97267.22;5034598;28;20045;-65
2021/04/29 04:21:33;;;;;;;1999.90;999.90;;;;;;;10.67;59.44;97263.75;5038411;28;20082;-65
2021/04/29 04:23:59;;;;;;;1999.90;999.90;;;;;;;11.05;58.69;97265.97;5028983;28;20053;-65
2021/04/29 04:26:25;;;;;;;1999.90;999.90;;;;;;;11.30;58.00;97273.28;5033186;28;20060;-65
2021/04/29 04:28:51;;;;;;;1999.90;999.90;;;;;;;11.42;55.68;97270.47;5038418;28;20048;-65
2021/04/29 04:31:17;;;;;;;1999.90;999.90;;;;;;;11.75;54.68;97281.13;5029560;28;20413;-65
2021/04/29 04:33:43;;;;;;;1999.90;999.90;;;;;;;12.05;55.06;97271.56;5036443;28;20041;-65
2021/04/29 04:36:09;;;;;;;1999.90;999.90;;;;;;;12.16;54.55;97261.50;5032487;28;20052;-65
2021/04/29 04:38:36;;;;;;;1999.90;999.90;;;;;;;11.81;53.24;97263.06;5036243;28;20506;-65
2021/04/29 04:41:03;;;;;;;1999.90;999.90;;;;;;;11.73;54.07;97263.25;5036220;28;20045;-65
2021/04/29 04:43:29;;;;;;;1999.90;999.90;;;;;;;11.90;54.26;97270.41;5043808;28;20049;-65
2021/04/29 04:45:56;;;;;;;1999.90;999.90;;;;;;;12.15;53.67;97265.44;5038882;28;20247;-65
2021/04/29 04:48:22;;;;;;;1999.90;999.90;;;;;;;12.26;53.54;97266.47;5035396;28;20094;-65
2021/04/29 04:50:48;;;;;;;1999.90;999.90;;;;;;;12.06;53.73;97260.09;5041830;28;20373;-65
2021/04/29 04:53:14;;;;;;;1999.90;999.90;;;;;;;12.40;53.31;97262.38;5035830;28;20045;-65
2021/04/29 04:55:47;;;;;;;1999.90;999.90;;;;;;;12.46;52.86;97260.94;5043214;28;20102;-65
2021/04/29 04:58:14;;;;;;;1999.90;999.90;;;;;;;12.51;53.12;97255.91;5041065;28;20053;-65
2021/04/29 05:00:40;;;;;;;1999.90;999.90;;;;;;;12.46;53.17;97255.38;5032886;28;20060;-65
2021/04/29 05:03:07;;;;;;;1999.90;999.90;;;;;;;12.60;53.03;97258.44;5039107;28;20049;-65
2021/04/29 05:05:33;;;;;;;1999.90;999.90;;;;;;;12.93;52.75;97264.63;5024629;28;20411;-65
2021/04/29 05:08:00;;;;;;;1999.90;999.90;;;;;;;13.04;52.35;97266.44;5038868;28;20049;-65
2021/04/29 05:10:30;;;;;;;1999.90;999.90;;;;;;;12.95;52.63;97265.88;5040949;28;20049;-65
2021/04/29 05:12:57;;;;;;;1999.90;999.90;;;;;;;13.09;52.86;97259.78;5038220;28;20610;-65
2021/04/29 05:15:23;;;;;;;1999.90;999.90;;;;;;;12.84;53.92;97257.31;5039247;28;20053;-65
2021/04/29 05:17:51;;;;;;;1999.90;999.90;;;;;;;12.85;54.61;97253.41;5042086;28;20563;-65
2021/04/29 05:20:17;;;;;;;1999.90;999.90;;;;;;;13.12;53.90;97255.47;5048203;28;20045;-65
2021/04/29 05:22:43;;;;;;;1999.90;999.90;;;;;;;13.51;53.04;97249.81;5043701;28;20067;-65
2021/04/29 05:25:10;;;;;;;1999.90;999.90;;;;;;;14.04;52.04;97249.81;5042548;28;20154;-65
2021/04/29 05:27:36;;;;;;;1999.90;999.90;;;;;;;14.30;52.14;97239.84;5037237;28;20053;-65
2021/04/29 05:30:04;;;;;;;1999.90;999.90;;;;;;;13.92;53.30;97250.06;5027158;28;20048;-65
2021/04/29 05:32:30;;;;;;;1999.90;999.90;;;;;;;14.38;52.67;97236.00;5046850;28;20091;-65
2021/04/29 05:34:56;;;;;;;1999.90;999.90;;;;;;;13.78;54.43;97245.06;5045600;28;20053;-65
2021/04/29 05:37:24;;;;;;;1999.90;999.90;;;;;;;14.21;53.87;97239.31;5040009;28;20508;-65
2021/04/29 05:39:52;;;;;;;1999.90;999.90;;;;;;;14.07;54.24;97232.41;5037415;28;20057;-65
2021/04/29 05:42:18;;;;;;;1999.90;999.90;;;;;;;14.49;53.89;97240.88;5044095;28;20045;-66
2021/04/29 05:44:45;;;;;;;1999.90;999.90;;;;;;;14.67;53.16;97239.13;5045457;28;20439;-66
2021/04/29 05:47:11;;;;;;;1999.90;999.90;;;;;;;14.44;53.39;97245.59;5041496;28;20053;-66
2021/04/29 05:49:42;;;;;;;1999.90;999.90;;;;;;;14.31;54.19;97244.22;5045148;28;20082;-66
2021/04/29 05:52:11;;;;;;;1999.90;999.90;;;;;;;14.44;54.66;97245.59;5040390;28;20063;-65
2021/04/29 05:54:38;;;;;;;1999.90;999.90;;;;;;;14.57;54.13;97237.00;5041593;28;20046;-65
2021/04/29 05:57:05;;;;;;;1999.90;999.90;;;;;;;14.41;54.53;97234.41;5042987;28;20080;-65
2021/04/29 05:59:32;;;;;;;1999.90;999.90;;;;;;;14.74;53.86;97247.56;5038499;28;20470;-65
2021/04/29 06:01:58;;;;;;;1999.90;999.90;;;;;;;15.00;53.45;97243.06;5044189;28;20059;-65
2021/04/29 06:04:41;;;;;;;1999.90;999.90;;;;;;;15.04;53.66;97243.13;5046870;28;20045;-65
2021/04/29 06:07:08;;;;;;;1999.90;999.90;;;;;;;15.07;53.21;97248.72;5047790;28;20484;-65
2021/04/29 06:09:34;;;;;;;1999.90;999.90;;;;;;;14.86;54.22;97237.38;5029799;28;20142;-65
2021/04/29 06:12:01;;;;;;;1999.90;999.90;;;;;;;14.99;54.58;97241.47;5047125;28;20057;-65
2021/04/29 06:14:27;;;;;;;1999.90;999.90;;;;;;;15.07;54.52;97243.13;5046299;28;20053;-65
2021/04/29 06:16:53;;;;;;;1999.90;999.90;;;;;;;15.06;54.27;97237.94;5038365;28;20045;-65
2021/04/29 06:19:20;;;;;;;1999.90;999.90;;;;;;;14.75;55.56;97237.22;5045674;28;20052;-65
2021/04/29 06:21:46;;;;;;;1999.90;999.90;;;;;;;15.00;55.71;97234.72;5045834;28;20064;-65
2021/04/29 06:24:12;;;;;;;1999.90;999.90;;;;;;;15.10;55.77;97236.00;5041885;28;20059;-64
2021/04/29 06:26:40;;;;;;;1999.90;999.90;;;;;;;15.29;55.86;97232.22;5046916;28;20454;-65
2021/04/29 06:29:07;;;;;;;1999.90;999.90;;;;;;;15.41;54.83;97239.47;5043095;28;20488;-64
2021/04/29 06:31:36;;;;;;;1999.90;999.90;;;;;;;15.40;54.65;97237.88;5048906;28;20470;-65
2021/04/29 06:34:07;;;;;;;1999.90;999.90;;;;;;;15.52;55.16;97234.00;5044812;28;20468;-65
2021/04/29 06:36:33;;;;;;;1999.90;999.90;;;;;;;15.86;53.60;97234.66;5045763;28;20130;-64
2021/04/29 06:38:59;;;;;;;1999.90;999.90;;;;;;;15.48;54.61;97236.72;5029893;28;20045;-65
2021/04/29 06:41:25;;;;;;;1999.90;999.90;;;;;;;15.74;54.38;97226.59;5037863;28;20056;-64
2021/04/29 06:43:52;;;;;;;1999.90;999.90;;;;;;;15.86;55.05;97231.09;5028318;28;20118;-65
2021/04/29 06:46:18;;;;;;;1999.90;999.90;;;;;;;15.91;54.30;97236.28;5044834;28;20563;-64
2021/04/29 06:48:44;;;;;;;1999.90;999.90;;;;;;;16.32;52.84;97230.56;5045293;28;20144;-65
2021/04/29 06:51:10;;;;;;;1999.90;999.90;;;;;;;16.24;53.28;97234.50;5044113;28;20082;-65
2021/04/29 06:53:56;;;;;;;1999.90;999.90;;;;;;;16.34;54.43;97236.53;5044627;28;20055;-66
2021/04/29 06:56:22;;;;;;;1999.90;999.90;;;;;;;15.72;55.00;97229.78;5042166;28;20056;-64
2021/04/29 06:59:04;;;;;;;1999.90;999.90;;;;;;;16.23;54.19;97224.53;5046036;28;20131;-67
2021/04/29 07:01:30;;;;;;;1999.90;999.90;;;;;;;16.42;55.33;97220.63;5045473;28;20041;-64
2021/04/29 07:03:57;;;;;;;1999.90;999.90;;;;;;;17.22;52.24;97231.66;5044830;28;20412;-64
2021/04/29 07:06:24;;;;;;;1999.90;999.90;;;;;;;17.54;51.51;97230.88;5045952;28;20049;-64
2021/04/29 07:08:56;;;;;;;1999.90;999.90;;;;;;;17.83;50.86;97230.06;5044881;28;20052;-64
2021/04/29 07:11:22;;;;;;;1999.90;999.90;;;;;;;17.20;51.86;97234.03;5042390;28;20525;-65
2021/04/29 07:13:48;;;;;;;1999.90;999.90;;;;;;;16.82;52.82;97230.75;5043513;28;20144;-65
2021/04/29 07:16:14;;;;;;;1999.90;999.90;;;;;;;16.87;52.76;97232.38;5046886;28;20053;-65
2021/04/29 07:18:40;;;;;;;1999.90;999.90;;;;;;;17.69;51.65;97231.66;5045863;28;20055;-64
2021/04/29 07:21:06;;;;;;;1999.90;999.90;;;;;;;17.53;51.24;97229.28;5045460;28;20063;-65
2021/04/29 07:23:32;;;;;;;1999.90;999.90;;;;;;;17.44;51.77;97234.47;5048290;28;20055;-66
2021/04/29 07:25:59;;;;;;;1999.90;999.90;;;;;;;17.28;52.15;97228.47;5039732;28;20050;-65
2021/04/29 07:28:27;;;;;;;1999.90;999.90;;;;;;;16.65;54.26;97229.50;5042449;28;20048;-65
2021/04/29 07:30:54;;;;;;;1999.90;999.90;;;;;;;16.15;56.32;97227.28;5042673;28;20134;-65
2021/04/29 07:33:20;;;;;;;1999.90;999.90;;;;;;;16.37;55.53;97230.16;5043056;28;20048;-65
2021/04/29 07:35:46;;;;;;;1999.90;999.90;;;;;;;16.52;56.19;97219.88;5039320;28;20056;-65
2021/04/29 07:38:12;;;;;;;1999.90;999.90;;;;;;;16.92;55.05;97225.63;5041280;28;20636;-65
2021/04/29 07:40:39;;;;;;;1999.90;999.90;;;;;;;16.89;54.56;97221.63;5023875;28;20455;-65
2021/04/29 07:43:05;;;;;;;1999.90;999.90;;;;;;;16.97;54.44;97222.44;5041318;28;20052;-65
2021/04/29 07:45:32;;;;;;;1999.90;999.90;;;;;;;16.97;54.89;97222.44;5043721;28;20064;-65
2021/04/29 07:47:58;;;;;;;1999.90;999.90;;;;;;;17.48;53.51;97215.72;5042864;28;20048;-65
2021/04/29 07:50:25;;;;;;;1999.90;999.90;;;;;;;17.25;54.58;97221.66;5038744;28;20573;-65
2021/04/29 07:52:55;;;;;;;1999.90;999.90;;;;;;;16.90;55.16;97226.00;5044566;28;20051;-65
2021/04/29 07:55:21;;;;;;;1999.90;999.90;;;;;;;16.99;55.58;97222.84;5038804;28;20132;-65
2021/04/29 07:57:47;;;;;;;1999.90;999.90;;;;;;;16.70;55.66;97228.31;5044783;28;20091;-65
2021/04/29 08:00:14;;;;;;;1999.90;999.90;;;;;;;17.16;54.91;97233.22;5037498;28;20099;-65
2021/04/29 08:02:43;;;;;;;1999.90;999.90;;;;;;;16.69;56.41;97226.72;5045302;28;20482;-65
2021/04/29 08:05:11;;;;;;;1999.90;999.90;;;;;;;17.18;55.52;97230.84;5041948;28;20134;-65
2021/04/29 08:07:37;;;;;;;1999.90;999.90;;;;;;;17.80;54.19;97225.28;5040514;28;20056;-65
2021/04/29 08:10:07;;;;;;;1999.90;999.90;;;;;;;17.62;55.25;97228.88;5040713;28;20049;-65
2021/04/29 08:12:33;;;;;;;1999.90;999.90;;;;;;;17.69;54.58;97236.47;5041001;28;20779;-65
2021/04/29 08:15:00;;;;;;;1999.90;999.90;;;;;;;16.54;57.30;97223.09;5036963;28;20053;-65
2021/04/29 08:17:29;;;;;;;1999.90;999.90;;;;;;;17.04;57.68;97225.25;5043540;28;20451;-65
2021/04/29 08:19:56;;;;;;;1999.90;999.90;;;;;;;17.29;56.82;97230.06;5041641;28;20386;-65
2021/04/29 08:22:24;;;;;;;1999.90;999.90;;;;;;;18.15;54.68;97218.84;5035395;28;20312;-65
2021/04/29 08:24:51;;;;;;;1999.90;999.90;;;;;;;17.93;54.91;97229.28;5041887;28;20041;-65
2021/04/29 08:27:17;;;;;;;1999.90;999.90;;;;;;;18.11;55.20;97229.25;5043950;28;20419;-65
2021/04/29 08:29:44;;;;;;;1999.90;999.90;;;;;;;17.39;56.43;97223.69;5041444;28;20407;-65
2021/04/29 08:32:10;;;;;;;1999.90;999.90;;;;;;;16.73;59.25;97227.50;5043629;28;20386;-65
2021/04/29 08:34:36;;;;;;;1999.90;999.90;;;;;;;16.30;60.59;97224.56;5035043;28;20045;-64
2021/04/29 08:37:02;;;;;;;1999.90;999.90;;;;;;;16.12;61.57;97221.69;5042838;28;20055;-65
2021/04/29 08:39:29;;;;;;;1999.90;999.90;;;;;;;16.28;61.65;97226.94;5035642;28;20527;-66
2021/04/29 08:41:56;;;;;;;1999.90;999.90;;;;;;;16.96;60.33;97230.00;5042822;28;20048;-65
2021/04/29 08:44:22;;;;;;;1999.90;999.90;;;;;;;16.54;60.66;97232.25;5038693;28;20049;-65
2021/04/29 08:46:48;;;;;;;1999.90;999.90;;;;;;;15.80;62.77;97214.72;5041356;28;20396;-65
2021/04/29 08:49:15;;;;;;;1999.90;999.90;;;;;;;15.73;64.32;97222.22;5038756;28;20057;-65
2021/04/29 08:51:41;;;;;;;1999.90;999.90;;;;;;;16.25;62.59;97222.16;5039999;28;20099;-65
2021/04/29 08:54:07;;;;;;;1999.90;999.90;;;;;;;16.11;63.45;97226.47;5024414;28;20049;-65
2021/04/29 08:56:34;;;;;;;1999.90;999.90;;;;;;;16.11;63.27;97218.09;5042326;28;20102;-65
2021/04/29 08:59:00;;;;;;;1999.90;999.90;;;;;;;15.63;64.91;97220.94;5044585;28;20063;-65
2021/04/29 09:01:37;;;;;;;1999.90;999.90;;;;;;;15.78;64.50;97230.22;5024689;28;20428;-65
2021/04/29 09:04:15;;;;;;;1999.90;999.90;;;;;;;15.98;64.15;97225.19;5042127;28;20342;-66
2021/04/29 09:06:45;;;;;;;1999.90;999.90;;;;;;;15.78;64.86;97225.47;5045109;28;20052;-65
2021/04/29 09:09:13;;;;;;;1999.90;999.90;;;;;;;15.37;65.81;97227.50;5040512;28;20492;-65
2021/04/29 09:11:56;;;;;;;1999.90;999.90;;;;;;;15.48;66.24;97226.41;5036489;28;20535;-65
2021/04/29 09:14:40;;;;;;;1999.90;999.90;;;;;;;15.47;66.96;97222.00;5042377;28;20049;-65
2021/04/29 09:17:06;;;;;;;1999.90;999.90;;;;;;;16.18;65.17;97228.47;5041632;28;20061;-66
2021/04/29 09:19:41;;;;;;;1999.90;999.90;;;;;;;16.04;64.50;97215.25;5036886;28;20056;-65
2021/04/29 09:22:21;;;;;;;1999.90;999.90;;;;;;;16.14;63.82;97211.75;5042292;28;20554;-65
2021/04/29 09:24:48;;;;;;;1999.90;999.90;;;;;;;15.89;64.55;97208.81;5038735;28;20132;-65
2021/04/29 09:27:19;;;;;;;1999.90;999.90;;;;;;;15.97;65.15;97216.03;5041692;28;20447;-65
2021/04/29 09:29:54;;;;;;;1999.90;999.90;;;;;;;16.59;63.56;97214.31;5042412;28;20148;-65
2021/04/29 09:32:33;;;;;;;1999.90;999.90;;;;;;;16.47;63.53;97209.09;5043364;28;20060;-65
2021/04/29 09:35:03;;;;;;;1999.90;999.90;;;;;;;16.74;62.02;97220.75;5044660;28;20053;-65
2021/04/29 09:37:34;;;;;;;1999.90;999.90;;;;;;;16.76;61.20;97215.56;5042386;28;20056;-66
2021/04/29 09:40:20;;;;;;;1999.90;999.90;;;;;;;17.47;59.20;97211.31;5041639;28;20083;-66
2021/04/29 09:42:48;;;;;;;1999.90;999.90;;;;;;;18.33;57.09;97207.59;5034006;28;20056;-66
2021/04/29 09:45:31;;;;;;;1999.90;999.90;;;;;;;18.62;56.19;97202.69;5041948;28;20127;-66
2021/04/29 09:48:07;;;;;;;1999.90;999.90;;;;;;;19.46;54.30;97197.38;5043915;28;20053;-66
2021/04/29 09:50:38;;;;;;;1999.90;999.90;;;;;;;19.57;52.70;97202.88;5018077;28;20056;-66
2021/04/29 09:53:14;;;;;;;1999.90;999.90;;;;;;;19.76;53.47;97201.53;5045086;28;20420;-65
2021/04/29 09:55:44;;;;;;;1999.90;999.90;;;;;;;19.05;53.73;97198.84;5040110;28;20140;-64
2021/04/29 09:58:16;;;;;;;1999.90;999.90;;;;;;;18.80;55.74;97196.19;5041988;28;20049;-65
2021/04/29 10:00:50;;;;;;;1999.90;999.90;;;;;;;18.77;54.59;97199.78;5041558;28;20060;-65
2021/04/29 10:03:18;;;;;;;1999.90;999.90;;;;;;;18.60;55.17;97213.47;5043911;28;20126;-65
2021/04/29 10:05:46;;;;;;;1999.90;999.90;;;;;;;18.88;54.80;97200.56;5040746;28;20049;-65
2021/04/29 10:08:15;;;;;;;1999.90;999.90;;;;;;;18.77;55.34;97213.78;5041196;28;20056;-65
2021/04/29 10:10:47;;;;;;;1999.90;999.90;;;;;;;17.74;57.58;97219.28;5045851;28;20054;-65
2021/04/29 10:13:14;;;;;;;1999.90;999.90;;;;;;;17.96;57.75;97211.69;5038697;28;20497;-65
2021/04/29 10:15:43;;;;;;;1999.90;999.90;;;;;;;17.75;57.34;97212.50;5043190;28;20099;-65
2021/04/29 10:18:10;;;;;;;1999.90;999.90;;;;;;;17.64;58.05;97208.91;5045122;28;20130;-65
2021/04/29 10:20:39;;;;;;;1999.90;999.90;;;;;;;17.58;58.24;97203.72;5030589;28;20107;-65
2021/04/29 10:23:10;;;;;;;1999.90;999.90;;;;;;;17.32;58.56;97204.13;5047425;28;20480;-65
2021/04/29 10:25:36;;;;;;;1999.90;999.90;;;;;;;17.65;57.75;97204.91;5045380;28;20063;-65
2021/04/29 10:28:05;;;;;;;1999.90;999.90;;;;;;;17.42;57.48;97218.09;5040571;28;20057;-65
2021/04/29 10:30:37;;;;;;;1999.90;999.90;;;;;;;17.60;57.81;97208.91;5039970;28;20060;-65
2021/04/29 10:33:13;;;;;;;;;;;;;;;17.31;57.20;97206.09;5045800;28;20056;-65
2021/04/29 10:35:56;;;;;;;1999.90;999.90;;;;;;;17.95;56.29;97213.69;5044018;28;20315;-65
2021/04/29 10:38:33;;;;;;;1999.90;999.90;;;;;;;17.45;57.40;97208.13;5042856;28;20057;-65
2021/04/29 10:41:02;;;;;;;1999.90;999.90;;;;;;;17.91;56.43;97203.72;5046839;28;20053;-65
2021/04/29 10:43:31;;;;;;;1999.90;999.90;;;;;;;18.52;55.74;97203.53;5040868;28;20057;-65
2021/04/29 10:45:58;;;;;;;1999.90;999.90;;;;;;;18.00;55.18;97214.47;5043654;28;20056;-65
2021/04/29 10:48:26;;;;;;;1999.90;999.90;;;;;;;17.77;55.39;97219.28;5029363;28;20044;-65
2021/04/29 10:50:53;;;;;;;1999.90;999.90;;;;;;;18.17;55.76;97227.63;5044409;28;20427;-65
2021/04/29 10:53:30;;;;;;;1999.90;999.90;;;;;;;17.72;55.30;97218.91;5044954;28;20107;-65
2021/04/29 10:56:14;;;;;;;1999.90;999.90;;;;;;;18.71;53.62;97215.44;5045366;28;20397;-65
2021/04/29 10:58:41;;;;;;;1999.90;999.90;;;;;;;19.00;51.87;97216.91;5046044;28;20496;-65
2021/04/29 11:01:20;;;;;;;1999.90;999.90;;;;;;;19.30;51.93;97211.91;5048100;28;20106;-65
2021/04/29 11:03:50;;;;;;;1999.90;999.90;;;;;;;18.75;52.60;97216.22;5028552;28;20101;-65